Time;durP1;ratioP1;P1;durP2;ratioP2;P2;SDS_P1;SDS_P2;PMS_P1;PMS_P2;Temp;Humidity;BMP_temperature;BMP_pressure;BME280_temperature;BME280_humidity;BME280_pressure;Samples;Min_cycle;Max_cycle;Signal;HPM_P1;HPM_P2
2021/08/11 00:01:03;;;;;;;132.88;12.57;;;23.90;77.20;;;;;;5025641;28;20517;-60
2021/08/11 00:03:29;;;;;;;85.45;11.60;;;23.90;77.30;;;;;;5026415;28;20075;-60
2021/08/11 00:05:54;;;;;;;107.78;12.23;;;23.80;77.60;;;;;;5023017;28;20061;-60
2021/08/11 00:08:20;;;;;;;105.28;10.80;;;23.80;77.60;;;;;;5026309;28;20545;-59
2021/08/11 00:10:45;;;;;;;106.78;11.75;;;23.80;77.60;;;;;;5007761;28;20098;-60
2021/08/11 00:13:11;;;;;;;103.10;12.98;;;23.80;77.70;;;;;;5012460;28;20037;-60
2021/08/11 00:15:36;;;;;;;100.82;12.38;;;23.70;77.70;;;;;;5004382;28;20029;-59
2021/08/11 00:18:02;;;;;;;79.85;11.10;;;23.70;77.80;;;;;;5004429;28;20025;-60
2021/08/11 00:20:27;;;;;;;87.00;10.88;;;23.70;77.90;;;;;;5025457;28;20503;-60
2021/08/11 00:22:53;;;;;;;93.65;11.05;;;23.70;78.00;;;;;;5033443;28;20126;-59
2021/08/11 00:25:18;;;;;;;73.28;9.82;;;23.60;78.10;;;;;;5038323;28;20416;-59
2021/08/11 00:27:44;;;;;;;67.10;10.80;;;23.60;78.30;;;;;;5006899;28;20053;-59
2021/08/11 00:30:10;;;;;;;77.97;10.77;;;23.60;78.30;;;;;;5042320;28;20087;-59
2021/08/11 00:32:36;;;;;;;78.55;10.48;;;23.60;78.30;;;;;;5023763;28;20083;-59
2021/08/11 00:35:02;;;;;;;71.68;10.50;;;23.60;78.40;;;;;;5040786;28;20040;-59
2021/08/11 00:37:27;;;;;;;68.28;9.30;;;23.50;79.00;;;;;;5041382;28;20330;-60
2021/08/11 00:39:54;;;;;;;62.55;9.40;;;23.50;78.40;;;;;;5039600;28;20094;-60
2021/08/11 00:42:20;;;;;;;70.57;10.20;;;23.50;78.50;;;;;;5022984;28;20068;-59
2021/08/11 00:44:45;;;;;;;60.60;8.75;;;23.50;78.50;;;;;;5039429;28;20072;-59
2021/08/11 00:47:11;;;;;;;58.17;8.73;;;23.40;78.50;;;;;;5040491;28;20680;-60
2021/08/11 00:49:41;;;;;;;51.92;8.60;;;23.40;78.50;;;;;;5020777;28;20029;-59
2021/08/11 00:52:07;;;;;;;54.90;8.77;;;23.40;78.50;;;;;;5021543;28;20037;-59
2021/08/11 00:54:32;;;;;;;50.88;9.45;;;23.40;78.60;;;;;;5021979;28;20472;-59
2021/08/11 00:56:58;;;;;;;55.17;8.32;;;23.30;78.60;;;;;;5024536;28;20471;-59
2021/08/11 00:59:24;;;;;;;52.65;8.68;;;23.30;78.60;;;;;;5022949;28;20436;-59
2021/08/11 01:01:50;;;;;;;41.85;8.70;;;23.30;78.70;;;;;;5024577;28;20469;-60
2021/08/11 01:04:17;;;;;;;59.35;9.10;;;23.30;78.70;;;;;;5051998;28;20032;-59
2021/08/11 01:06:42;;;;;;;39.58;8.93;;;23.30;78.80;;;;;;5039892;28;20033;-60
2021/08/11 01:09:08;;;;;;;38.70;7.95;;;23.20;78.70;;;;;;5022801;28;20043;-59
2021/08/11 01:11:33;;;;;;;32.40;7.78;;;23.20;78.80;;;;;;5038238;28;20414;-59
2021/08/11 01:13:59;;;;;;;27.15;7.00;;;23.20;78.80;;;;;;5020595;28;20043;-59
2021/08/11 01:16:24;;;;;;;33.45;7.35;;;23.20;78.90;;;;;;5022701;28;20029;-60
2021/08/11 01:18:50;;;;;;;42.13;8.13;;;23.20;78.90;;;;;;5040041;28;20033;-60
2021/08/11 01:21:22;;;;;;;31.40;7.80;;;23.10;78.80;;;;;;5022726;28;20132;-60
2021/08/11 01:24:16;;;;;;;27.40;6.63;;;23.10;78.80;;;;;;5021685;28;20080;-60
2021/08/11 01:27:13;;;;;;;26.15;7.75;;;23.10;78.90;;;;;;5042578;28;20031;-60
2021/08/11 01:29:57;;;;;;;32.08;7.57;;;23.10;78.90;;;;;;5025597;28;20449;-60
2021/08/11 01:32:50;;;;;;;25.80;6.80;;;23.00;78.90;;;;;;5039380;28;20037;-60
2021/08/11 01:35:17;;;;;;;23.88;7.00;;;23.00;79.00;;;;;;5039545;28;20147;-60
2021/08/11 01:37:43;;;;;;;25.98;6.68;;;23.00;79.10;;;;;;5023337;28;20147;-60
2021/08/11 01:40:09;;;;;;;21.92;7.10;;;22.90;79.00;;;;;;5022788;28;20132;-59
2021/08/11 01:42:39;;;;;;;26.08;6.45;;;22.90;79.10;;;;;;5040466;28;20115;-59
2021/08/11 01:45:12;;;;;;;18.90;6.43;;;22.90;79.20;;;;;;5020109;28;20172;-60
2021/08/11 01:47:58;;;;;;;19.58;7.20;;;22.80;79.10;;;;;;5023566;28;20021;-60
2021/08/11 01:50:23;;;;;;;23.85;7.95;;;22.80;79.20;;;;;;5004481;28;20598;-60
2021/08/11 01:52:49;;;;;;;18.58;7.95;;;22.80;79.20;;;;;;5023086;28;20025;-60
2021/08/11 01:55:15;;;;;;;13.25;7.00;;;22.80;79.30;;;;;;5023709;28;20108;-60
2021/08/11 01:57:48;;;;;;;12.88;8.02;;;22.80;79.40;;;;;;5043875;28;20567;-60
2021/08/11 02:00:14;;;;;;;20.55;8.27;;;22.80;79.40;;;;;;5027684;28;20036;-60
2021/08/11 02:02:40;;;;;;;23.02;7.78;;;22.80;79.40;;;;;;5026907;28;20036;-60
2021/08/11 02:05:06;;;;;;;13.88;7.28;;;22.70;79.40;;;;;;5043117;28;20079;-60
2021/08/11 02:07:33;;;;;;;17.92;6.68;;;22.70;79.40;;;;;;5025480;28;20127;-60
2021/08/11 02:09:58;;;;;;;14.50;7.07;;;22.70;79.50;;;;;;5054972;28;20040;-60
2021/08/11 02:12:24;;;;;;;17.15;7.40;;;22.60;79.60;;;;;;5042753;28;20437;-59
2021/08/11 02:14:49;;;;;;;18.35;7.93;;;22.60;79.60;;;;;;5025255;28;20035;-60
2021/08/11 02:17:15;;;;;;;13.10;7.40;;;22.60;79.70;;;;;;5009262;28;20264;-60
2021/08/11 02:19:40;;;;;;;14.32;7.00;;;22.60;79.80;;;;;;5025998;28;20436;-60
2021/08/11 02:22:06;;;;;;;15.40;6.95;;;22.60;79.90;;;;;;5042805;28;20057;-60
2021/08/11 02:24:31;;;;;;;12.80;7.05;;;22.60;79.90;;;;;;5042560;28;20052;-60
2021/08/11 02:27:04;;;;;;;15.27;7.35;;;22.50;79.90;;;;;;5022971;28;20033;-60
2021/08/11 02:29:54;;;;;;;12.18;6.50;;;22.50;80.00;;;;;;5057821;28;20037;-60
2021/08/11 02:32:26;;;;;;;11.52;6.32;;;22.50;80.00;;;;;;5008299;28;20025;-60
2021/08/11 02:35:16;;;;;;;10.48;6.03;;;22.50;80.10;;;;;;5021946;28;20221;-60
2021/08/11 02:37:43;;;;;;;10.95;6.30;;;22.50;80.20;;;;;;5043599;28;20028;-60
2021/08/11 02:40:18;;;;;;;12.10;6.43;;;22.40;80.20;;;;;;5024675;28;20027;-60
2021/08/11 02:43:04;;;;;;;9.23;6.10;;;22.40;80.30;;;;;;5042522;28;20024;-60
2021/08/11 02:45:30;;;;;;;14.75;6.30;;;22.40;80.30;;;;;;5043545;28;20519;-60
2021/08/11 02:47:55;;;;;;;12.23;5.72;;;22.40;80.40;;;;;;5057386;28;20040;-60
2021/08/11 02:50:21;;;;;;;10.65;6.10;;;22.40;80.50;;;;;;5023886;28;20131;-60
2021/08/11 02:52:47;;;;;;;11.98;5.82;;;22.30;80.50;;;;;;5026294;28;20083;-60
2021/08/11 02:55:12;;;;;;;8.40;5.80;;;22.30;80.60;;;;;;5023973;28;20105;-60
2021/08/11 02:57:38;;;;;;;13.25;5.68;;;22.30;80.60;;;;;;5042371;28;20520;-60
2021/08/11 03:00:05;;;;;;;11.05;5.55;;;22.30;80.70;;;;;;5043263;28;20036;-60
2021/08/11 03:02:31;;;;;;;14.95;5.85;;;22.30;80.80;;;;;;5043942;28;20047;-60
2021/08/11 03:04:56;;;;;;;12.00;5.07;;;22.30;80.90;;;;;;5024307;28;20335;-60
2021/08/11 03:07:22;;;;;;;8.40;5.65;;;22.20;80.90;;;;;;5054397;28;20036;-60
2021/08/11 03:09:48;;;;;;;8.88;5.40;;;22.20;81.00;;;;;;5037722;28;20028;-60
2021/08/11 03:12:14;;;;;;;8.85;5.45;;;22.20;81.00;;;;;;5023342;28;20033;-60
2021/08/11 03:14:40;;;;;;;10.05;6.00;;;22.20;81.10;;;;;;5021499;28;20118;-60
2021/08/11 03:17:10;;;;;;;7.32;5.45;;;22.20;81.20;;;;;;5040510;28;20043;-60
2021/08/11 03:19:36;;;;;;;8.77;5.35;;;22.20;81.10;;;;;;5005273;28;20021;-60
2021/08/11 03:22:01;;;;;;;7.72;5.40;;;22.20;81.20;;;;;;5034992;28;20072;-60
2021/08/11 03:24:27;;;;;;;10.93;5.50;;;22.10;81.30;;;;;;5025355;28;20843;-60
2021/08/11 03:26:52;;;;;;;10.25;5.47;;;22.10;81.30;;;;;;5008312;28;20028;-60
2021/08/11 03:29:18;;;;;;;9.32;5.68;;;22.10;81.40;;;;;;5020061;28;20060;-60
2021/08/11 03:31:43;;;;;;;10.50;6.00;;;22.10;81.30;;;;;;5008015;28;20168;-60
2021/08/11 03:34:09;;;;;;;10.93;5.50;;;22.10;81.40;;;;;;5039185;28;20103;-60
2021/08/11 03:36:34;;;;;;;7.95;5.47;;;22.10;81.40;;;;;;5024192;28;20061;-60
2021/08/11 03:39:00;;;;;;;10.48;5.60;;;22.00;81.50;;;;;;5036344;28;20132;-60
2021/08/11 03:41:26;;;;;;;9.30;5.32;;;22.00;81.60;;;;;;5004588;28;20037;-60
2021/08/11 03:43:51;;;;;;;10.43;5.63;;;22.00;81.70;;;;;;5041392;28;20477;-60
2021/08/11 03:46:16;;;;;;;11.90;5.63;;;22.00;81.80;;;;;;5023749;28;20026;-60
2021/08/11 03:48:42;;;;;;;7.68;5.63;;;22.00;81.80;;;;;;5010769;28;20024;-59
2021/08/11 03:51:08;;;;;;;8.70;5.32;;;21.90;81.90;;;;;;5023597;28;20056;-60
2021/08/11 03:53:33;;;;;;;8.90;5.25;;;21.90;82.00;;;;;;5003257;28;20029;-60
2021/08/11 03:55:59;;;;;;;6.40;5.50;;;21.90;82.10;;;;;;5010493;28;20372;-59
2021/08/11 03:58:24;;;;;;;6.00;5.00;;;21.90;82.30;;;;;;5006660;28;20032;-60
2021/08/11 04:00:50;;;;;;;6.55;5.00;;;21.90;82.50;;;;;;4991791;28;20140;-60
2021/08/11 04:03:15;;;;;;;5.53;4.70;;;21.90;82.60;;;;;;5028154;28;20025;-59
2021/08/11 04:05:41;;;;;;;8.27;5.00;;;21.80;82.60;;;;;;5026417;28;20041;-60
2021/08/11 04:08:06;;;;;;;5.00;4.43;;;21.90;82.80;;;;;;5003718;28;20362;-60
2021/08/11 04:10:32;;;;;;;7.05;5.30;;;21.90;82.80;;;;;;5023484;28;20033;-60
2021/08/11 04:12:57;;;;;;;5.85;4.60;;;21.80;82.80;;;;;;5026237;28;20029;-60
2021/08/11 04:15:23;;;;;;;8.93;4.97;;;21.80;82.80;;;;;;5021735;28;20030;-60
2021/08/11 04:17:48;;;;;;;7.78;5.13;;;21.80;82.90;;;;;;5029651;28;20036;-60
2021/08/11 04:20:14;;;;;;;10.32;4.65;;;21.70;82.90;;;;;;5012472;28;20080;-60
2021/08/11 04:22:39;;;;;;;7.65;5.03;;;21.70;83.10;;;;;;5016848;28;20536;-60
2021/08/11 04:25:05;;;;;;;7.43;4.65;;;21.70;83.20;;;;;;5022737;28;20424;-60
2021/08/11 04:27:31;;;;;;;6.10;5.00;;;21.70;83.30;;;;;;5008316;28;20511;-60
2021/08/11 04:29:56;;;;;;;7.95;4.88;;;21.60;83.40;;;;;;5040657;28;20146;-60
2021/08/11 04:32:22;;;;;;;5.80;4.63;;;21.60;83.50;;;;;;5040418;28;20041;-60
2021/08/11 04:34:47;;;;;;;9.15;4.68;;;21.60;83.60;;;;;;5041018;28;20036;-60
2021/08/11 04:37:17;;;;;;;7.55;5.05;;;21.60;83.60;;;;;;5022127;28;20349;-59
2021/08/11 04:39:43;;;;;;;5.13;4.40;;;21.50;83.60;;;;;;5023192;28;20419;-60
2021/08/11 04:42:08;;;;;;;5.57;4.63;;;21.50;83.70;;;;;;5040553;28;20033;-60
2021/08/11 04:44:34;;;;;;;6.22;4.63;;;21.50;83.70;;;;;;5022391;28;20080;-60
2021/08/11 04:46:59;;;;;;;7.00;4.43;;;21.50;83.70;;;;;;5024933;28;20067;-60
2021/08/11 04:49:25;;;;;;;5.13;4.28;;;21.50;83.70;;;;;;5021698;28;20479;-60
2021/08/11 04:51:50;;;;;;;6.90;5.03;;;21.50;83.80;;;;;;5042344;28;20037;-60
2021/08/11 04:54:16;;;;;;;7.15;4.53;;;21.50;83.80;;;;;;5041072;28;20110;-60
2021/08/11 04:56:41;;;;;;;4.53;4.10;;;21.50;83.80;;;;;;5041120;28;20320;-60
2021/08/11 04:59:07;;;;;;;5.35;4.53;;;21.50;84.00;;;;;;5024016;28;20793;-60
2021/08/11 05:01:32;;;;;;;7.80;4.22;;;21.50;84.00;;;;;;5040830;28;20029;-60
2021/08/11 05:03:58;;;;;;;5.93;4.75;;;21.40;84.10;;;;;;5042226;28;20029;-60
2021/08/11 05:06:23;;;;;;;5.45;4.32;;;21.40;84.20;;;;;;5040184;28;20054;-60
2021/08/11 05:08:49;;;;;;;8.27;4.90;;;21.40;84.20;;;;;;5039531;28;20029;-60
2021/08/11 05:11:15;;;;;;;6.25;4.72;;;21.40;84.20;;;;;;5024117;28;20040;-60
2021/08/11 05:13:41;;;;;;;5.40;4.25;;;21.40;84.30;;;;;;5042452;28;20590;-59
2021/08/11 05:16:06;;;;;;;5.90;4.13;;;21.40;84.40;;;;;;5041153;28;20021;-60
2021/08/11 05:18:32;;;;;;;5.07;4.10;;;21.30;84.40;;;;;;5042771;28;20033;-60
2021/08/11 05:20:57;;;;;;;6.53;4.13;;;21.30;84.60;;;;;;5021001;28;20412;-60
2021/08/11 05:23:23;;;;;;;5.13;4.50;;;21.30;84.70;;;;;;5038081;28;20045;-60
2021/08/11 05:25:48;;;;;;;6.93;4.38;;;21.30;84.80;;;;;;5040773;28;20043;-60
2021/08/11 05:28:14;;;;;;;6.15;4.47;;;21.30;84.80;;;;;;5041691;28;20443;-60
2021/08/11 05:30:40;;;;;;;7.85;4.38;;;21.30;84.80;;;;;;5025486;28;20429;-60
2021/08/11 05:33:05;;;;;;;6.70;4.22;;;21.30;84.90;;;;;;5026579;28;20535;-60
2021/08/11 05:35:31;;;;;;;6.78;4.38;;;21.20;84.80;;;;;;5042900;28;20515;-60
2021/08/11 05:37:56;;;;;;;5.82;4.07;;;21.20;84.90;;;;;;5045283;28;20153;-60
2021/08/11 05:40:22;;;;;;;4.30;3.90;;;21.20;84.90;;;;;;5025705;28;20127;-60
2021/08/11 05:42:47;;;;;;;6.07;4.07;;;21.20;85.00;;;;;;5026354;28;20496;-60
2021/08/11 05:45:13;;;;;;;4.65;4.25;;;21.20;85.00;;;;;;5043668;28;20025;-60
2021/08/11 05:47:39;;;;;;;5.28;4.53;;;21.20;85.00;;;;;;5043958;28;20060;-60
2021/08/11 05:50:06;;;;;;;6.03;4.70;;;21.20;85.10;;;;;;5008813;28;20281;-59
2021/08/11 05:52:31;;;;;;;5.60;4.70;;;21.20;85.10;;;;;;5027592;28;20082;-60
2021/08/11 05:54:57;;;;;;;9.00;4.43;;;21.20;85.20;;;;;;5026378;28;20710;-59
2021/08/11 05:57:22;;;;;;;4.75;4.18;;;21.10;85.20;;;;;;5027450;28;20559;-60
2021/08/11 05:59:48;;;;;;;8.60;4.38;;;21.10;85.30;;;;;;5026110;28;20540;-60
2021/08/11 06:02:14;;;;;;;9.30;4.32;;;21.20;85.30;;;;;;5045581;28;20141;-60
2021/08/11 06:04:39;;;;;;;6.40;4.03;;;21.10;85.30;;;;;;5024723;28;20183;-60
2021/08/11 06:07:05;;;;;;;9.43;4.72;;;21.20;85.40;;;;;;5044960;28;20429;-60
2021/08/11 06:09:30;;;;;;;5.53;4.15;;;21.20;85.50;;;;;;5024993;28;20044;-60
2021/08/11 06:11:56;;;;;;;9.10;5.03;;;21.20;85.50;;;;;;5025791;28;20033;-60
2021/08/11 06:14:21;;;;;;;7.30;4.35;;;21.20;85.70;;;;;;5044593;28;20037;-59
2021/08/11 06:16:47;;;;;;;12.27;5.45;;;21.20;85.70;;;;;;5044485;28;20106;-60
2021/08/11 06:19:12;;;;;;;7.18;4.40;;;21.20;86.00;;;;;;5044201;28;20021;-60
2021/08/11 06:21:38;;;;;;;9.93;5.05;;;21.20;85.90;;;;;;5043360;28;20028;-60
2021/08/11 06:24:04;;;;;;;8.68;4.82;;;21.20;86.00;;;;;;5009597;28;20338;-59
2021/08/11 06:26:29;;;;;;;6.57;4.68;;;21.20;86.20;;;;;;5013939;28;20124;-60
2021/08/11 06:28:55;;;;;;;7.35;4.57;;;21.20;86.20;;;;;;4992656;28;20037;-60
2021/08/11 06:31:23;;;;;;;8.65;5.10;;;21.20;86.10;;;;;;5022229;28;20036;-60
2021/08/11 06:33:49;;;;;;;8.68;4.65;;;21.30;86.00;;;;;;5006247;28;20022;-60
2021/08/11 06:36:14;;;;;;;11.30;5.00;;;21.30;86.30;;;;;;5003952;28;20037;-59
2021/08/11 06:38:40;;;;;;;14.80;5.10;;;21.30;86.40;;;;;;5007030;28;20090;-59
2021/08/11 06:41:06;;;;;;;14.52;5.38;;;21.30;86.50;;;;;;5005574;28;20492;-60
2021/08/11 06:43:31;;;;;;;11.07;5.15;;;21.30;86.70;;;;;;5023339;28;20026;-60
2021/08/11 06:45:57;;;;;;;14.93;5.95;;;21.30;86.60;;;;;;5026355;28;20025;-60
2021/08/11 06:48:22;;;;;;;9.68;4.95;;;21.30;87.20;;;;;;5023268;28;20047;-60
2021/08/11 06:50:48;;;;;;;11.57;5.32;;;21.30;87.40;;;;;;5019717;28;20153;-60
2021/08/11 06:53:13;;;;;;;20.52;6.13;;;21.30;87.50;;;;;;5002303;28;20499;-60
2021/08/11 06:55:39;;;;;;;17.27;5.95;;;21.30;87.50;;;;;;5016857;28;20143;-60
2021/08/11 06:58:04;;;;;;;18.77;5.43;;;21.30;87.60;;;;;;5016459;28;20187;-60
2021/08/11 07:00:30;;;;;;;15.23;5.40;;;21.30;87.60;;;;;;5023968;28;20041;-60
2021/08/11 07:02:56;;;;;;;13.43;6.10;;;21.30;87.30;;;;;;5019363;28;20033;-61
2021/08/11 07:05:21;;;;;;;20.67;6.00;;;21.40;87.60;;;;;;5021144;28;20029;-60
2021/08/11 07:07:47;;;;;;;23.80;7.22;;;21.40;88.70;;;;;;5022619;28;20381;-60
2021/08/11 07:10:14;;;;;;;19.80;7.07;;;21.30;89.10;;;;;;5021876;28;20196;-60
2021/08/11 07:12:39;;;;;;;32.83;7.85;;;21.40;89.60;;;;;;5021495;28;20097;-60
2021/08/11 07:15:06;;;;;;;53.15;7.32;;;21.30;90.00;;;;;;5022036;28;20037;-60
2021/08/11 07:17:31;;;;;;;36.58;7.82;;;21.30;90.00;;;;;;5039653;28;20049;-60
2021/08/11 07:19:57;;;;;;;21.80;6.07;;;21.40;90.10;;;;;;5007630;28;20081;-60
2021/08/11 07:22:24;;;;;;;28.00;6.82;;;21.30;90.10;;;;;;5045909;28;20570;-59
2021/08/11 07:24:52;;;;;;;23.05;7.57;;;21.30;90.10;;;;;;5039947;28;20029;-59
2021/08/11 07:27:17;;;;;;;31.70;7.90;;;21.20;90.20;;;;;;5024031;28;20033;-60
2021/08/11 07:29:43;;;;;;;27.35;7.78;;;21.30;90.20;;;;;;5041173;28;20036;-60
2021/08/11 07:32:09;;;;;;;48.30;8.63;;;21.30;90.20;;;;;;5042461;28;20096;-60
2021/08/11 07:34:34;;;;;;;38.13;7.88;;;21.30;90.10;;;;;;5041119;28;20017;-59
2021/08/11 07:37:00;;;;;;;47.53;8.57;;;21.30;90.20;;;;;;5039053;28;20091;-59
2021/08/11 07:39:25;;;;;;;30.98;8.05;;;21.30;90.20;;;;;;5038667;28;20144;-59
2021/08/11 07:41:51;;;;;;;44.42;9.32;;;21.20;90.00;;;;;;5019080;28;20045;-60
2021/08/11 07:44:16;;;;;;;42.03;9.90;;;21.40;90.10;;;;;;5021692;28;20167;-60
2021/08/11 07:46:42;;;;;;;38.15;8.60;;;21.40;90.40;;;;;;5054748;28;20708;-60
2021/08/11 07:49:07;;;;;;;50.83;9.38;;;21.40;90.40;;;;;;5039738;28;20576;-60
2021/08/11 07:51:33;;;;;;;40.03;9.32;;;21.30;90.40;;;;;;5020437;28;20094;-60
2021/08/11 07:53:58;;;;;;;49.70;9.20;;;21.40;90.40;;;;;;5038632;28;20673;-60
2021/08/11 07:56:24;;;;;;;59.25;8.90;;;21.40;90.50;;;;;;5039767;28;20033;-60
2021/08/11 07:58:50;;;;;;;39.85;9.55;;;21.40;90.40;;;;;;5038916;28;20112;-60
2021/08/11 08:01:15;;;;;;;46.67;8.98;;;21.40;90.60;;;;;;5016268;28;20830;-60
2021/08/11 08:03:41;;;;;;;43.90;9.13;;;21.40;90.50;;;;;;5038455;28;20477;-60
2021/08/11 08:06:06;;;;;;;47.58;8.60;;;21.50;90.60;;;;;;5022003;28;20111;-60
2021/08/11 08:08:32;;;;;;;35.08;7.88;;;21.40;90.60;;;;;;5018047;28;20045;-60
2021/08/11 08:10:58;;;;;;;47.58;9.57;;;21.50;90.60;;;;;;5018368;28;20036;-60
2021/08/11 08:13:23;;;;;;;57.90;9.07;;;21.50;90.60;;;;;;5017411;28;20025;-60
2021/08/11 08:15:49;;;;;;;72.05;10.48;;;21.50;90.60;;;;;;5017428;28;20052;-60
2021/08/11 08:18:21;;;;;;;63.63;10.75;;;21.50;90.60;;;;;;5017295;28;20095;-60
2021/08/11 08:20:48;;;;;;;59.35;10.88;;;21.60;90.50;;;;;;5020716;28;20041;-60
2021/08/11 08:23:13;;;;;;;58.28;9.32;;;21.60;90.40;;;;;;5017580;28;20296;-60
2021/08/11 08:25:39;;;;;;;45.67;9.20;;;21.60;90.20;;;;;;5049784;28;22053;-61
2021/08/11 08:28:05;;;;;;;70.38;10.25;;;21.70;90.10;;;;;;5035021;28;20040;-60
2021/08/11 08:30:30;;;;;;;49.42;9.05;;;21.70;90.10;;;;;;5033934;28;20124;-61
2021/08/11 08:32:56;;;;;;;60.05;10.05;;;21.70;90.10;;;;;;5016636;28;20024;-61
2021/08/11 08:35:21;;;;;;;57.95;9.02;;;21.70;90.10;;;;;;5036357;28;20051;-61
2021/08/11 08:37:47;;;;;;;40.95;8.40;;;21.70;90.00;;;;;;5036863;28;20660;-60
2021/08/11 08:40:13;;;;;;;65.05;10.60;;;21.80;89.70;;;;;;5033148;28;20064;-60
2021/08/11 08:42:42;;;;;;;67.20;9.30;;;21.90;90.00;;;;;;5023903;28;20041;-61
2021/08/11 08:45:09;;;;;;;64.63;10.60;;;21.80;89.90;;;;;;5021912;28;20025;-60
2021/08/11 08:47:38;;;;;;;72.65;10.15;;;21.90;90.10;;;;;;5036282;28;20025;-61
2021/08/11 08:50:05;;;;;;;92.40;13.13;;;21.90;90.00;;;;;;5000656;28;20052;-60
2021/08/11 08:52:31;;;;;;;76.13;12.27;;;21.90;90.10;;;;;;5005275;28;20026;-60
2021/08/11 08:54:57;;;;;;;73.00;11.50;;;22.00;90.10;;;;;;5020105;28;20021;-61
2021/08/11 08:57:22;;;;;;;81.10;11.90;;;22.00;89.90;;;;;;5035255;28;20167;-61
2021/08/11 08:59:48;;;;;;;77.15;12.18;;;22.10;90.00;;;;;;5020749;28;20041;-60
2021/08/11 09:02:14;;;;;;;89.20;11.93;;;22.10;90.00;;;;;;5010571;28;20052;-60
2021/08/11 09:04:40;;;;;;;77.32;10.40;;;22.10;90.00;;;;;;5016801;28;20659;-60
2021/08/11 09:07:12;;;;;;;72.35;10.82;;;22.10;90.00;;;;;;5038133;28;20060;-60
2021/08/11 09:09:38;;;;;;;87.32;11.60;;;22.20;89.80;;;;;;5005048;28;20028;-60
2021/08/11 09:12:13;;;;;;;60.15;9.90;;;22.20;90.00;;;;;;5017308;28;20600;-60
2021/08/11 09:14:42;;;;;;;74.75;12.82;;;22.20;89.70;;;;;;5021931;28;20036;-60
2021/08/11 09:17:08;;;;;;;60.20;11.02;;;22.30;90.00;;;;;;5012075;28;20033;-60
2021/08/11 09:19:46;;;;;;;44.22;9.13;;;22.30;89.70;;;;;;5035131;28;20071;-60
2021/08/11 09:22:13;;;;;;;55.47;9.35;;;22.30;88.80;;;;;;5050805;28;20444;-60
2021/08/11 09:24:40;;;;;;;60.17;10.40;;;22.30;88.40;;;;;;5035822;28;20037;-60
2021/08/11 09:27:21;;;;;;;63.20;10.95;;;22.40;88.30;;;;;;5021787;28;20424;-60
2021/08/11 09:30:03;;;;;;;61.08;10.45;;;22.40;88.00;;;;;;5033970;28;20805;-60
2021/08/11 09:32:28;;;;;;;54.30;7.80;;;22.40;87.80;;;;;;5018334;28;20044;-60
2021/08/11 09:34:56;;;;;;;42.70;8.48;;;22.50;86.80;;;;;;5035234;28;20086;-60
2021/08/11 09:37:40;;;;;;;39.42;7.85;;;22.50;86.00;;;;;;5038584;28;20025;-61
2021/08/11 09:40:10;;;;;;;46.35;7.68;;;22.60;85.10;;;;;;5020018;28;20040;-61
2021/08/11 09:42:37;;;;;;;25.35;7.00;;;22.60;84.00;;;;;;5032741;28;20048;-63
2021/08/11 09:45:03;;;;;;;35.92;7.38;;;22.60;83.00;;;;;;5027372;28;21857;-60
2021/08/11 09:47:29;;;;;;;45.80;8.32;;;22.70;81.50;;;;;;5041984;28;20094;-60
2021/08/11 09:50:08;;;;;;;33.22;7.30;;;22.70;81.10;;;;;;5054614;28;20520;-60
2021/08/11 09:52:50;;;;;;;28.58;7.18;;;22.80;80.60;;;;;;5051271;28;20032;-60
2021/08/11 09:55:16;;;;;;;36.10;6.97;;;22.80;80.00;;;;;;5023503;28;20040;-61
2021/08/11 09:57:42;;;;;;;31.45;6.95;;;22.80;79.50;;;;;;5033464;28;20106;-61
2021/08/11 10:00:12;;;;;;;33.95;7.03;;;22.90;78.90;;;;;;5032096;28;20053;-60
2021/08/11 10:02:38;;;;;;;36.00;6.65;;;23.00;78.80;;;;;;5050752;28;20128;-60
2021/08/11 10:05:04;;;;;;;27.65;6.32;;;23.00;78.30;;;;;;4997763;28;20715;-60
2021/08/11 10:07:29;;;;;;;43.95;6.97;;;23.00;77.90;;;;;;5000082;28;20091;-60
2021/08/11 10:10:04;;;;;;;28.42;6.25;;;23.10;78.00;;;;;;5006141;28;20330;-61
2021/08/11 10:12:29;;;;;;;31.92;6.88;;;23.00;77.70;;;;;;5006664;28;20024;-61
2021/08/11 10:14:56;;;;;;;31.45;5.90;;;23.10;77.50;;;;;;5021909;28;20318;-61
2021/08/11 10:17:23;;;;;;;36.35;6.85;;;23.10;77.60;;;;;;5015645;28;20060;-60
2021/08/11 10:19:48;;;;;;;34.10;7.32;;;23.10;77.60;;;;;;5030964;28;20121;-60
2021/08/11 10:22:14;;;;;;;37.50;7.30;;;23.20;77.80;;;;;;5034231;28;20060;-60
2021/08/11 10:24:40;;;;;;;34.22;7.68;;;23.20;78.00;;;;;;5015845;28;20046;-61
2021/08/11 10:27:06;;;;;;;33.08;6.68;;;23.10;77.70;;;;;;5019545;28;20106;-60
2021/08/11 10:29:32;;;;;;;39.25;6.32;;;23.30;77.20;;;;;;5019589;28;20053;-60
2021/08/11 10:31:58;;;;;;;23.13;5.90;;;23.30;77.20;;;;;;5033272;28;20037;-60
2021/08/11 10:34:24;;;;;;;25.10;6.40;;;23.40;76.90;;;;;;5038300;28;20501;-61
2021/08/11 10:36:49;;;;;;;34.40;6.18;;;23.40;76.80;;;;;;5020360;28;20095;-61
2021/08/11 10:39:16;;;;;;;39.38;6.97;;;23.50;76.80;;;;;;5016768;28;20029;-60
2021/08/11 10:41:41;;;;;;;32.88;6.65;;;23.50;76.70;;;;;;5037311;28;20132;-60
2021/08/11 10:44:19;;;;;;;35.90;6.03;;;23.60;76.60;;;;;;5002196;28;20123;-61
2021/08/11 10:46:45;;;;;;;31.98;6.93;;;23.60;76.40;;;;;;5021937;28;20118;-60
2021/08/11 10:49:17;;;;;;;57.72;9.43;;;23.70;76.30;;;;;;5021244;28;20027;-61
2021/08/11 10:51:44;;;;;;;21.70;6.32;;;23.70;76.40;;;;;;5020006;28;20433;-60
2021/08/11 10:54:10;;;;;;;46.58;8.95;;;23.80;76.10;;;;;;5023263;28;20021;-60
2021/08/11 10:56:43;;;;;;;87.28;11.00;;;23.80;75.60;;;;;;5022865;28;20047;-61
2021/08/11 10:59:24;;;;;;;59.83;8.70;;;23.80;75.10;;;;;;5023467;28;20526;-60
2021/08/11 11:01:50;;;;;;;33.60;8.07;;;23.90;74.80;;;;;;5021962;28;20029;-61
2021/08/11 11:04:49;;;;;;;39.85;8.70;;;23.90;74.60;;;;;;5005590;28;20036;-60
2021/08/11 11:07:16;;;;;;;72.82;10.25;;;23.90;74.20;;;;;;5024877;28;20021;-61
2021/08/11 11:09:43;;;;;;;34.60;8.68;;;24.00;73.50;;;;;;5022652;28;20049;-61
2021/08/11 11:12:18;;;;;;;39.05;8.93;;;24.00;73.60;;;;;;5034118;28;20036;-61
2021/08/11 11:14:46;;;;;;;26.60;7.57;;;24.10;73.90;;;;;;5018804;28;20061;-60
2021/08/11 11:17:15;;;;;;;28.65;8.00;;;24.10;73.60;;;;;;5021304;28;20537;-60
2021/08/11 11:20:03;;;;;;;58.72;9.65;;;24.20;73.60;;;;;;5041796;28;20045;-61
2021/08/11 11:22:39;;;;;;;22.83;7.65;;;24.30;73.60;;;;;;5041733;28;20469;-61
2021/08/11 11:25:09;;;;;;;26.38;8.38;;;24.40;73.20;;;;;;5019317;28;20029;-60
2021/08/11 11:28:01;;;;;;;43.42;9.35;;;24.50;73.10;;;;;;5020722;28;20420;-60
2021/08/11 11:30:28;;;;;;;42.08;9.55;;;24.50;72.40;;;;;;5023904;28;20068;-60
2021/08/11 11:32:54;;;;;;;38.80;9.45;;;24.60;71.40;;;;;;5039842;28;20154;-60
2021/08/11 11:35:24;;;;;;;14.48;8.38;;;24.70;70.90;;;;;;5038108;28;20036;-60
2021/08/11 11:38:09;;;;;;;19.60;9.05;;;24.80;70.20;;;;;;5017175;28;20100;-60
2021/08/11 11:41:03;;;;;;;14.80;7.80;;;24.90;69.80;;;;;;5041260;28;20041;-60
2021/08/11 11:43:30;;;;;;;45.97;10.68;;;25.00;69.20;;;;;;5037928;28;20124;-61
2021/08/11 11:45:56;;;;;;;52.15;10.82;;;25.10;69.60;;;;;;5024504;28;20082;-61
2021/08/11 11:48:22;;;;;;;62.58;11.75;;;25.20;69.30;;;;;;5023680;28;20037;-61
2021/08/11 11:50:49;;;;;;;66.00;13.32;;;25.20;69.60;;;;;;5021558;28;20041;-61
2021/08/11 11:53:36;;;;;;;56.47;12.63;;;25.30;69.50;;;;;;5018937;28;20094;-61
2021/08/11 11:56:14;;;;;;;73.00;12.43;;;25.40;69.20;;;;;;5023363;28;20032;-60
2021/08/11 11:58:47;;;;;;;65.10;12.45;;;25.50;69.00;;;;;;5021060;28;20037;-60
2021/08/11 12:01:13;;;;;;;85.28;15.10;;;25.60;69.10;;;;;;5006746;28;20090;-60
2021/08/11 12:03:40;;;;;;;89.13;15.43;;;25.60;68.80;;;;;;5020665;28;20753;-60
2021/08/11 12:06:06;;;;;;;64.60;14.02;;;25.70;68.80;;;;;;5018432;28;20396;-61
2021/08/11 12:08:32;;;;;;;59.75;12.70;;;25.70;68.70;;;;;;5036873;28;20036;-61
2021/08/11 12:11:08;;;;;;;59.88;13.48;;;25.90;68.80;;;;;;5036542;28;20035;-60
2021/08/11 12:13:47;;;;;;;54.45;12.50;;;25.90;68.80;;;;;;5003331;28;20029;-61
2021/08/11 12:16:15;;;;;;;51.70;11.07;;;26.00;68.40;;;;;;5023029;28;20071;-61
2021/08/11 12:18:41;;;;;;;46.78;11.57;;;26.00;68.40;;;;;;5021209;28;20151;-60
2021/08/11 12:21:07;;;;;;;48.78;12.02;;;26.10;68.10;;;;;;5037574;28;20063;-61
2021/08/11 12:23:34;;;;;;;51.75;12.13;;;26.20;68.00;;;;;;5029254;28;20040;-60
2021/08/11 12:26:01;;;;;;;49.75;11.68;;;26.30;67.70;;;;;;5001817;28;20094;-61
2021/08/11 12:28:27;;;;;;;63.92;12.35;;;26.30;67.50;;;;;;5005291;28;20116;-61
2021/08/11 12:31:00;;;;;;;63.45;12.05;;;26.30;67.30;;;;;;5005624;28;20109;-61
2021/08/11 12:33:36;;;;;;;48.63;12.55;;;26.40;67.00;;;;;;4999184;28;20455;-61
2021/08/11 12:36:01;;;;;;;;;;;26.40;66.90;;;;;;4985556;28;20120;-61
2021/08/11 12:38:32;;;;;;;48.33;10.95;;;26.50;67.00;;;;;;5036586;28;20404;-61
2021/08/11 12:40:58;;;;;;;51.00;12.65;;;26.60;66.70;;;;;;5020323;28;20053;-61